sensor_id;sensor_type;location;lat;lon;timestamp;P1;durP1;ratioP1;P2;durP2;ratioP2
14748;SDS011;7466;53.574;9.976;2022-08-19T00:00:51;16.63;;;14.03;;
14748;SDS011;7466;53.574;9.976;2022-08-19T00:03:17;15.00;;;12.40;;
14748;SDS011;7466;53.574;9.976;2022-08-19T00:05:44;14.67;;;13.23;;
14748;SDS011;7466;53.574;9.976;2022-08-19T00:08:11;14.90;;;13.27;;
14748;SDS011;7466;53.574;9.976;2022-08-19T00:10:38;14.53;;;13.00;;
14748;SDS011;7466;53.574;9.976;2022-08-19T00:13:05;13.80;;;12.53;;
14748;SDS011;7466;53.574;9.976;2022-08-19T00:15:33;15.67;;;13.47;;
14748;SDS011;7466;53.574;9.976;2022-08-19T00:18:00;14.80;;;13.23;;
14748;SDS011;7466;53.574;9.976;2022-08-19T00:20:27;16.47;;;14.07;;
14748;SDS011;7466;53.574;9.976;2022-08-19T00:22:54;20.77;;;17.37;;
14748;SDS011;7466;53.574;9.976;2022-08-19T00:25:21;19.27;;;17.20;;
14748;SDS011;7466;53.574;9.976;2022-08-19T00:27:47;26.27;;;20.87;;
14748;SDS011;7466;53.574;9.976;2022-08-19T00:30:15;28.37;;;23.20;;
14748;SDS011;7466;53.574;9.976;2022-08-19T00:32:43;31.60;;;25.00;;
14748;SDS011;7466;53.574;9.976;2022-08-19T00:35:10;30.23;;;24.67;;
14748;SDS011;7466;53.574;9.976;2022-08-19T00:37:37;33.67;;;26.00;;
14748;SDS011;7466;53.574;9.976;2022-08-19T00:40:08;30.27;;;25.67;;
14748;SDS011;7466;53.574;9.976;2022-08-19T00:42:36;32.53;;;26.17;;
14748;SDS011;7466;53.574;9.976;2022-08-19T00:45:03;31.97;;;25.47;;
14748;SDS011;7466;53.574;9.976;2022-08-19T00:47:37;35.77;;;27.53;;
14748;SDS011;7466;53.574;9.976;2022-08-19T00:50:07;36.40;;;27.63;;
14748;SDS011;7466;53.574;9.976;2022-08-19T00:52:37;36.37;;;28.83;;
14748;SDS011;7466;53.574;9.976;2022-08-19T00:55:09;36.03;;;27.73;;
14748;SDS011;7466;53.574;9.976;2022-08-19T00:57:37;37.30;;;29.27;;
14748;SDS011;7466;53.574;9.976;2022-08-19T01:00:07;40.17;;;29.50;;
14748;SDS011;7466;53.574;9.976;2022-08-19T01:02:36;45.50;;;31.37;;
14748;SDS011;7466;53.574;9.976;2022-08-19T01:05:05;36.73;;;30.50;;
14748;SDS011;7466;53.574;9.976;2022-08-19T01:07:37;36.87;;;30.50;;
14748;SDS011;7466;53.574;9.976;2022-08-19T01:10:07;39.90;;;29.07;;
14748;SDS011;7466;53.574;9.976;2022-08-19T01:12:36;37.77;;;28.70;;
14748;SDS011;7466;53.574;9.976;2022-08-19T01:15:04;37.83;;;28.03;;
14748;SDS011;7466;53.574;9.976;2022-08-19T01:17:33;37.60;;;28.27;;
14748;SDS011;7466;53.574;9.976;2022-08-19T01:20:03;33.23;;;26.53;;
14748;SDS011;7466;53.574;9.976;2022-08-19T01:22:33;32.57;;;25.80;;
14748;SDS011;7466;53.574;9.976;2022-08-19T01:25:03;30.93;;;24.00;;
14748;SDS011;7466;53.574;9.976;2022-08-19T01:27:36;28.67;;;23.40;;
14748;SDS011;7466;53.574;9.976;2022-08-19T01:30:05;29.63;;;23.07;;
14748;SDS011;7466;53.574;9.976;2022-08-19T01:32:34;30.30;;;23.63;;
14748;SDS011;7466;53.574;9.976;2022-08-19T01:35:01;25.17;;;21.30;;
14748;SDS011;7466;53.574;9.976;2022-08-19T01:37:30;29.33;;;21.77;;
14748;SDS011;7466;53.574;9.976;2022-08-19T01:40:10;27.27;;;22.07;;
14748;SDS011;7466;53.574;9.976;2022-08-19T01:42:37;23.00;;;20.47;;
14748;SDS011;7466;53.574;9.976;2022-08-19T01:45:06;24.97;;;19.80;;
14748;SDS011;7466;53.574;9.976;2022-08-19T01:47:34;29.47;;;22.27;;
14748;SDS011;7466;53.574;9.976;2022-08-19T01:50:02;29.93;;;22.77;;
14748;SDS011;7466;53.574;9.976;2022-08-19T01:52:30;26.37;;;22.70;;
14748;SDS011;7466;53.574;9.976;2022-08-19T01:54:58;33.33;;;23.83;;
14748;SDS011;7466;53.574;9.976;2022-08-19T01:57:25;35.70;;;24.47;;
14748;SDS011;7466;53.574;9.976;2022-08-19T01:59:52;30.87;;;24.13;;
14748;SDS011;7466;53.574;9.976;2022-08-19T02:02:19;38.27;;;25.97;;
14748;SDS011;7466;53.574;9.976;2022-08-19T02:04:46;36.83;;;25.53;;
14748;SDS011;7466;53.574;9.976;2022-08-19T02:07:13;33.33;;;25.13;;
14748;SDS011;7466;53.574;9.976;2022-08-19T02:09:40;32.27;;;24.63;;
14748;SDS011;7466;53.574;9.976;2022-08-19T02:12:08;36.87;;;25.53;;
14748;SDS011;7466;53.574;9.976;2022-08-19T02:14:35;34.23;;;25.17;;
14748;SDS011;7466;53.574;9.976;2022-08-19T02:17:02;37.40;;;25.77;;
14748;SDS011;7466;53.574;9.976;2022-08-19T02:19:29;36.43;;;26.87;;
14748;SDS011;7466;53.574;9.976;2022-08-19T02:21:58;32.70;;;24.23;;
14748;SDS011;7466;53.574;9.976;2022-08-19T02:24:25;34.60;;;24.93;;
14748;SDS011;7466;53.574;9.976;2022-08-19T02:26:52;37.10;;;25.87;;
14748;SDS011;7466;53.574;9.976;2022-08-19T02:29:20;39.67;;;27.50;;
14748;SDS011;7466;53.574;9.976;2022-08-19T02:31:47;35.37;;;24.43;;
14748;SDS011;7466;53.574;9.976;2022-08-19T02:34:16;37.87;;;26.43;;
14748;SDS011;7466;53.574;9.976;2022-08-19T02:36:43;34.60;;;23.77;;
14748;SDS011;7466;53.574;9.976;2022-08-19T02:39:10;37.60;;;25.13;;
14748;SDS011;7466;53.574;9.976;2022-08-19T02:41:36;38.77;;;25.40;;
14748;SDS011;7466;53.574;9.976;2022-08-19T02:44:03;41.40;;;26.67;;
14748;SDS011;7466;53.574;9.976;2022-08-19T02:46:31;35.50;;;25.63;;
14748;SDS011;7466;53.574;9.976;2022-08-19T02:48:59;37.70;;;26.03;;
14748;SDS011;7466;53.574;9.976;2022-08-19T02:51:28;39.83;;;27.17;;
14748;SDS011;7466;53.574;9.976;2022-08-19T02:53:57;40.73;;;27.53;;
14748;SDS011;7466;53.574;9.976;2022-08-19T02:56:25;47.23;;;27.13;;
14748;SDS011;7466;53.574;9.976;2022-08-19T02:58:52;42.50;;;27.67;;
14748;SDS011;7466;53.574;9.976;2022-08-19T03:01:21;51.23;;;28.97;;
14748;SDS011;7466;53.574;9.976;2022-08-19T03:03:50;53.50;;;28.93;;
14748;SDS011;7466;53.574;9.976;2022-08-19T03:06:18;57.77;;;31.17;;
14748;SDS011;7466;53.574;9.976;2022-08-19T03:08:46;54.23;;;30.57;;
14748;SDS011;7466;53.574;9.976;2022-08-19T03:11:15;60.67;;;32.33;;
14748;SDS011;7466;53.574;9.976;2022-08-19T03:13:43;62.53;;;33.20;;
14748;SDS011;7466;53.574;9.976;2022-08-19T03:16:10;71.27;;;35.53;;
14748;SDS011;7466;53.574;9.976;2022-08-19T03:18:38;66.33;;;34.47;;
14748;SDS011;7466;53.574;9.976;2022-08-19T03:21:06;69.33;;;34.03;;
14748;SDS011;7466;53.574;9.976;2022-08-19T03:23:33;66.30;;;35.10;;
14748;SDS011;7466;53.574;9.976;2022-08-19T03:26:02;68.97;;;34.73;;
14748;SDS011;7466;53.574;9.976;2022-08-19T03:28:31;71.57;;;36.00;;
14748;SDS011;7466;53.574;9.976;2022-08-19T03:30:59;59.57;;;32.70;;
14748;SDS011;7466;53.574;9.976;2022-08-19T03:33:28;60.20;;;31.60;;
14748;SDS011;7466;53.574;9.976;2022-08-19T03:36:00;63.97;;;32.03;;
14748;SDS011;7466;53.574;9.976;2022-08-19T03:38:31;58.37;;;30.03;;
14748;SDS011;7466;53.574;9.976;2022-08-19T03:41:01;58.20;;;31.10;;
14748;SDS011;7466;53.574;9.976;2022-08-19T03:43:31;57.23;;;28.63;;
14748;SDS011;7466;53.574;9.976;2022-08-19T03:46:03;54.90;;;28.03;;
14748;SDS011;7466;53.574;9.976;2022-08-19T03:48:31;48.13;;;28.33;;
14748;SDS011;7466;53.574;9.976;2022-08-19T03:50:59;48.57;;;27.77;;
14748;SDS011;7466;53.574;9.976;2022-08-19T03:53:26;51.77;;;28.63;;
14748;SDS011;7466;53.574;9.976;2022-08-19T03:55:54;44.50;;;27.47;;
14748;SDS011;7466;53.574;9.976;2022-08-19T03:58:23;47.53;;;26.43;;
14748;SDS011;7466;53.574;9.976;2022-08-19T04:00:50;52.53;;;27.90;;
14748;SDS011;7466;53.574;9.976;2022-08-19T04:03:17;47.57;;;27.63;;
14748;SDS011;7466;53.574;9.976;2022-08-19T04:05:45;51.70;;;27.87;;
14748;SDS011;7466;53.574;9.976;2022-08-19T04:08:13;55.07;;;27.40;;
14748;SDS011;7466;53.574;9.976;2022-08-19T04:10:45;58.27;;;29.20;;
14748;SDS011;7466;53.574;9.976;2022-08-19T04:13:14;52.60;;;29.93;;
14748;SDS011;7466;53.574;9.976;2022-08-19T04:15:43;65.50;;;32.83;;
14748;SDS011;7466;53.574;9.976;2022-08-19T04:18:11;67.10;;;34.40;;
14748;SDS011;7466;53.574;9.976;2022-08-19T04:20:40;67.03;;;35.17;;
14748;SDS011;7466;53.574;9.976;2022-08-19T04:23:08;70.17;;;34.13;;
14748;SDS011;7466;53.574;9.976;2022-08-19T04:25:37;73.73;;;36.73;;
14748;SDS011;7466;53.574;9.976;2022-08-19T04:28:05;75.20;;;35.57;;
14748;SDS011;7466;53.574;9.976;2022-08-19T04:30:38;70.53;;;35.13;;
14748;SDS011;7466;53.574;9.976;2022-08-19T04:33:06;65.57;;;34.73;;
14748;SDS011;7466;53.574;9.976;2022-08-19T04:35:35;63.90;;;34.70;;
14748;SDS011;7466;53.574;9.976;2022-08-19T04:38:04;79.40;;;37.20;;
14748;SDS011;7466;53.574;9.976;2022-08-19T04:40:31;70.33;;;36.27;;
14748;SDS011;7466;53.574;9.976;2022-08-19T04:43:16;66.80;;;37.87;;
14748;SDS011;7466;53.574;9.976;2022-08-19T04:45:44;72.40;;;38.77;;
14748;SDS011;7466;53.574;9.976;2022-08-19T04:48:12;65.90;;;37.13;;
14748;SDS011;7466;53.574;9.976;2022-08-19T04:50:40;70.23;;;38.63;;
14748;SDS011;7466;53.574;9.976;2022-08-19T04:53:08;67.20;;;37.70;;
14748;SDS011;7466;53.574;9.976;2022-08-19T04:55:38;74.17;;;40.47;;
14748;SDS011;7466;53.574;9.976;2022-08-19T04:58:05;65.53;;;39.30;;
14748;SDS011;7466;53.574;9.976;2022-08-19T05:00:32;68.53;;;39.83;;
14748;SDS011;7466;53.574;9.976;2022-08-19T05:03:01;51.57;;;36.40;;
14748;SDS011;7466;53.574;9.976;2022-08-19T05:05:28;58.90;;;36.73;;
14748;SDS011;7466;53.574;9.976;2022-08-19T05:07:56;51.43;;;34.30;;
14748;SDS011;7466;53.574;9.976;2022-08-19T05:10:23;57.53;;;34.13;;
14748;SDS011;7466;53.574;9.976;2022-08-19T05:12:50;50.37;;;32.13;;
14748;SDS011;7466;53.574;9.976;2022-08-19T05:15:17;53.77;;;32.43;;
14748;SDS011;7466;53.574;9.976;2022-08-19T05:17:44;57.20;;;31.77;;
14748;SDS011;7466;53.574;9.976;2022-08-19T05:20:32;46.60;;;31.73;;
14748;SDS011;7466;53.574;9.976;2022-08-19T05:23:17;48.57;;;32.17;;
14748;SDS011;7466;53.574;9.976;2022-08-19T05:25:44;42.10;;;29.37;;
14748;SDS011;7466;53.574;9.976;2022-08-19T05:28:10;48.40;;;29.90;;
14748;SDS011;7466;53.574;9.976;2022-08-19T05:30:37;41.10;;;29.03;;
14748;SDS011;7466;53.574;9.976;2022-08-19T05:33:05;46.47;;;30.03;;
14748;SDS011;7466;53.574;9.976;2022-08-19T05:35:34;45.63;;;29.20;;
14748;SDS011;7466;53.574;9.976;2022-08-19T05:38:03;47.53;;;29.07;;
14748;SDS011;7466;53.574;9.976;2022-08-19T05:40:31;40.47;;;28.13;;
14748;SDS011;7466;53.574;9.976;2022-08-19T05:43:01;39.17;;;28.87;;
14748;SDS011;7466;53.574;9.976;2022-08-19T05:45:28;42.63;;;28.67;;
14748;SDS011;7466;53.574;9.976;2022-08-19T05:47:55;37.23;;;28.00;;
14748;SDS011;7466;53.574;9.976;2022-08-19T05:50:23;46.73;;;27.67;;
14748;SDS011;7466;53.574;9.976;2022-08-19T05:52:52;42.50;;;27.83;;
14748;SDS011;7466;53.574;9.976;2022-08-19T05:55:19;38.87;;;26.53;;
14748;SDS011;7466;53.574;9.976;2022-08-19T05:57:47;42.60;;;27.67;;
14748;SDS011;7466;53.574;9.976;2022-08-19T06:00:14;49.37;;;27.30;;
14748;SDS011;7466;53.574;9.976;2022-08-19T06:02:42;44.30;;;27.67;;
14748;SDS011;7466;53.574;9.976;2022-08-19T06:05:09;42.53;;;27.37;;
14748;SDS011;7466;53.574;9.976;2022-08-19T06:07:36;41.40;;;26.80;;
14748;SDS011;7466;53.574;9.976;2022-08-19T06:10:07;43.50;;;28.80;;
14748;SDS011;7466;53.574;9.976;2022-08-19T06:12:35;53.57;;;29.63;;
14748;SDS011;7466;53.574;9.976;2022-08-19T06:15:03;45.70;;;29.13;;
14748;SDS011;7466;53.574;9.976;2022-08-19T06:17:32;48.43;;;30.77;;
14748;SDS011;7466;53.574;9.976;2022-08-19T06:20:00;51.37;;;30.97;;
14748;SDS011;7466;53.574;9.976;2022-08-19T06:22:27;47.80;;;30.13;;
14748;SDS011;7466;53.574;9.976;2022-08-19T06:24:54;51.03;;;30.93;;
14748;SDS011;7466;53.574;9.976;2022-08-19T06:27:23;49.90;;;30.10;;
14748;SDS011;7466;53.574;9.976;2022-08-19T06:29:50;56.97;;;31.17;;
14748;SDS011;7466;53.574;9.976;2022-08-19T06:32:17;45.23;;;30.70;;
14748;SDS011;7466;53.574;9.976;2022-08-19T06:34:44;54.27;;;32.87;;
14748;SDS011;7466;53.574;9.976;2022-08-19T06:37:12;56.83;;;32.03;;
14748;SDS011;7466;53.574;9.976;2022-08-19T06:39:40;62.67;;;34.13;;
14748;SDS011;7466;53.574;9.976;2022-08-19T06:42:08;57.73;;;33.20;;
14748;SDS011;7466;53.574;9.976;2022-08-19T06:44:43;57.57;;;33.50;;
14748;SDS011;7466;53.574;9.976;2022-08-19T06:47:14;58.27;;;33.27;;
14748;SDS011;7466;53.574;9.976;2022-08-19T06:49:42;60.23;;;33.20;;
14748;SDS011;7466;53.574;9.976;2022-08-19T06:52:10;54.73;;;32.63;;
14748;SDS011;7466;53.574;9.976;2022-08-19T06:54:37;56.90;;;30.73;;
14748;SDS011;7466;53.574;9.976;2022-08-19T06:57:05;46.50;;;29.70;;
14748;SDS011;7466;53.574;9.976;2022-08-19T06:59:34;52.93;;;30.80;;
14748;SDS011;7466;53.574;9.976;2022-08-19T07:02:04;45.53;;;30.03;;
14748;SDS011;7466;53.574;9.976;2022-08-19T07:04:32;47.30;;;26.37;;
14748;SDS011;7466;53.574;9.976;2022-08-19T07:07:01;43.13;;;26.27;;
14748;SDS011;7466;53.574;9.976;2022-08-19T07:09:31;46.80;;;27.23;;
14748;SDS011;7466;53.574;9.976;2022-08-19T07:11:58;47.13;;;25.77;;
14748;SDS011;7466;53.574;9.976;2022-08-19T07:14:26;39.73;;;25.77;;
14748;SDS011;7466;53.574;9.976;2022-08-19T07:16:54;39.40;;;24.50;;
14748;SDS011;7466;53.574;9.976;2022-08-19T07:19:24;33.53;;;23.77;;
14748;SDS011;7466;53.574;9.976;2022-08-19T07:21:53;40.03;;;24.70;;
14748;SDS011;7466;53.574;9.976;2022-08-19T07:24:21;34.17;;;24.43;;
14748;SDS011;7466;53.574;9.976;2022-08-19T07:26:49;33.37;;;23.87;;
14748;SDS011;7466;53.574;9.976;2022-08-19T07:29:18;38.23;;;22.03;;
14748;SDS011;7466;53.574;9.976;2022-08-19T07:31:47;36.33;;;19.67;;
14748;SDS011;7466;53.574;9.976;2022-08-19T07:34:15;23.03;;;18.40;;
14748;SDS011;7466;53.574;9.976;2022-08-19T07:36:43;24.60;;;19.53;;
14748;SDS011;7466;53.574;9.976;2022-08-19T07:39:14;21.63;;;17.60;;
14748;SDS011;7466;53.574;9.976;2022-08-19T07:41:43;23.43;;;16.00;;
14748;SDS011;7466;53.574;9.976;2022-08-19T07:44:12;24.77;;;17.80;;
14748;SDS011;7466;53.574;9.976;2022-08-19T07:46:42;19.60;;;17.60;;
14748;SDS011;7466;53.574;9.976;2022-08-19T07:49:12;25.53;;;16.60;;
14748;SDS011;7466;53.574;9.976;2022-08-19T07:51:45;17.10;;;14.83;;
14748;SDS011;7466;53.574;9.976;2022-08-19T07:54:13;19.53;;;14.33;;
14748;SDS011;7466;53.574;9.976;2022-08-19T07:56:40;20.90;;;12.70;;
14748;SDS011;7466;53.574;9.976;2022-08-19T07:59:07;14.40;;;12.40;;
14748;SDS011;7466;53.574;9.976;2022-08-19T08:01:34;13.57;;;12.23;;
14748;SDS011;7466;53.574;9.976;2022-08-19T08:04:02;16.53;;;12.10;;
14748;SDS011;7466;53.574;9.976;2022-08-19T08:06:47;17.03;;;13.43;;
14748;SDS011;7466;53.574;9.976;2022-08-19T08:09:34;18.33;;;13.50;;
14748;SDS011;7466;53.574;9.976;2022-08-19T08:12:04;20.63;;;14.27;;
14748;SDS011;7466;53.574;9.976;2022-08-19T08:14:33;19.20;;;15.20;;
14748;SDS011;7466;53.574;9.976;2022-08-19T08:17:02;16.90;;;13.63;;
14748;SDS011;7466;53.574;9.976;2022-08-19T08:19:31;19.80;;;15.47;;
14748;SDS011;7466;53.574;9.976;2022-08-19T08:22:00;21.30;;;14.40;;
14748;SDS011;7466;53.574;9.976;2022-08-19T08:24:28;26.70;;;14.80;;
14748;SDS011;7466;53.574;9.976;2022-08-19T08:26:57;16.73;;;13.30;;
14748;SDS011;7466;53.574;9.976;2022-08-19T08:29:25;26.80;;;14.60;;
14748;SDS011;7466;53.574;9.976;2022-08-19T08:31:52;21.20;;;14.87;;
14748;SDS011;7466;53.574;9.976;2022-08-19T08:34:19;17.73;;;15.63;;
14748;SDS011;7466;53.574;9.976;2022-08-19T08:36:47;22.87;;;16.27;;
14748;SDS011;7466;53.574;9.976;2022-08-19T08:39:15;27.17;;;17.77;;
14748;SDS011;7466;53.574;9.976;2022-08-19T08:41:46;21.13;;;18.13;;
14748;SDS011;7466;53.574;9.976;2022-08-19T08:44:20;24.80;;;17.23;;
14748;SDS011;7466;53.574;9.976;2022-08-19T08:46:49;24.90;;;16.90;;
14748;SDS011;7466;53.574;9.976;2022-08-19T08:49:24;21.10;;;17.70;;
14748;SDS011;7466;53.574;9.976;2022-08-19T08:51:58;24.70;;;17.70;;
14748;SDS011;7466;53.574;9.976;2022-08-19T08:54:30;24.90;;;18.73;;
14748;SDS011;7466;53.574;9.976;2022-08-19T08:57:00;23.47;;;18.67;;
14748;SDS011;7466;53.574;9.976;2022-08-19T08:59:33;31.00;;;20.47;;
14748;SDS011;7466;53.574;9.976;2022-08-19T09:02:02;31.47;;;21.37;;
14748;SDS011;7466;53.574;9.976;2022-08-19T09:04:29;30.43;;;19.90;;
14748;SDS011;7466;53.574;9.976;2022-08-19T09:06:58;23.03;;;19.20;;
14748;SDS011;7466;53.574;9.976;2022-08-19T09:09:38;27.60;;;19.10;;
14748;SDS011;7466;53.574;9.976;2022-08-19T09:12:08;29.23;;;20.60;;
14748;SDS011;7466;53.574;9.976;2022-08-19T09:14:45;34.60;;;20.33;;
14748;SDS011;7466;53.574;9.976;2022-08-19T09:17:17;28.77;;;18.27;;
14748;SDS011;7466;53.574;9.976;2022-08-19T09:19:48;30.33;;;20.00;;
14748;SDS011;7466;53.574;9.976;2022-08-19T09:22:18;31.03;;;18.90;;
14748;SDS011;7466;53.574;9.976;2022-08-19T09:24:48;32.23;;;18.93;;
14748;SDS011;7466;53.574;9.976;2022-08-19T09:27:17;28.40;;;18.03;;
14748;SDS011;7466;53.574;9.976;2022-08-19T09:29:45;29.80;;;18.40;;
14748;SDS011;7466;53.574;9.976;2022-08-19T09:32:13;31.33;;;17.50;;
14748;SDS011;7466;53.574;9.976;2022-08-19T09:34:40;21.17;;;16.70;;
14748;SDS011;7466;53.574;9.976;2022-08-19T09:37:08;23.93;;;16.70;;
14748;SDS011;7466;53.574;9.976;2022-08-19T09:39:35;21.43;;;15.03;;
14748;SDS011;7466;53.574;9.976;2022-08-19T09:42:04;20.43;;;14.33;;
14748;SDS011;7466;53.574;9.976;2022-08-19T09:44:36;27.10;;;16.83;;
14748;SDS011;7466;53.574;9.976;2022-08-19T09:47:03;27.73;;;19.03;;
14748;SDS011;7466;53.574;9.976;2022-08-19T09:49:30;28.73;;;19.50;;
14748;SDS011;7466;53.574;9.976;2022-08-19T09:51:57;27.77;;;19.40;;
14748;SDS011;7466;53.574;9.976;2022-08-19T09:54:24;26.30;;;20.10;;
14748;SDS011;7466;53.574;9.976;2022-08-19T09:56:51;28.20;;;18.80;;
14748;SDS011;7466;53.574;9.976;2022-08-19T09:59:19;24.47;;;17.37;;
14748;SDS011;7466;53.574;9.976;2022-08-19T10:01:47;20.77;;;16.53;;
14748;SDS011;7466;53.574;9.976;2022-08-19T10:04:14;28.67;;;18.63;;
14748;SDS011;7466;53.574;9.976;2022-08-19T10:06:41;25.07;;;18.07;;
14748;SDS011;7466;53.574;9.976;2022-08-19T10:09:08;21.00;;;17.23;;
14748;SDS011;7466;53.574;9.976;2022-08-19T10:11:36;23.00;;;18.77;;
14748;SDS011;7466;53.574;9.976;2022-08-19T10:14:06;27.30;;;18.60;;
14748;SDS011;7466;53.574;9.976;2022-08-19T10:16:35;25.03;;;17.80;;
14748;SDS011;7466;53.574;9.976;2022-08-19T10:19:04;25.10;;;19.27;;
14748;SDS011;7466;53.574;9.976;2022-08-19T10:21:31;23.27;;;19.03;;
14748;SDS011;7466;53.574;9.976;2022-08-19T10:23:59;26.97;;;19.63;;
14748;SDS011;7466;53.574;9.976;2022-08-19T10:26:32;29.90;;;19.67;;
14748;SDS011;7466;53.574;9.976;2022-08-19T10:29:02;22.90;;;20.10;;
14748;SDS011;7466;53.574;9.976;2022-08-19T10:31:31;22.33;;;19.83;;
14748;SDS011;7466;53.574;9.976;2022-08-19T10:34:00;27.80;;;21.33;;
14748;SDS011;7466;53.574;9.976;2022-08-19T10:36:28;27.73;;;20.60;;
14748;SDS011;7466;53.574;9.976;2022-08-19T10:38:57;27.97;;;21.13;;
14748;SDS011;7466;53.574;9.976;2022-08-19T10:41:26;30.47;;;21.53;;
14748;SDS011;7466;53.574;9.976;2022-08-19T10:43:55;31.90;;;21.17;;
14748;SDS011;7466;53.574;9.976;2022-08-19T10:46:24;27.60;;;21.13;;
14748;SDS011;7466;53.574;9.976;2022-08-19T10:48:52;30.33;;;20.13;;
14748;SDS011;7466;53.574;9.976;2022-08-19T10:51:21;26.30;;;20.73;;
14748;SDS011;7466;53.574;9.976;2022-08-19T10:54:05;27.67;;;21.30;;
14748;SDS011;7466;53.574;9.976;2022-08-19T10:56:32;26.23;;;20.70;;
14748;SDS011;7466;53.574;9.976;2022-08-19T10:59:18;26.77;;;21.83;;
14748;SDS011;7466;53.574;9.976;2022-08-19T11:01:47;29.70;;;21.37;;
14748;SDS011;7466;53.574;9.976;2022-08-19T11:04:15;29.40;;;21.17;;
14748;SDS011;7466;53.574;9.976;2022-08-19T11:06:44;31.37;;;22.77;;
14748;SDS011;7466;53.574;9.976;2022-08-19T11:09:13;27.97;;;23.00;;
14748;SDS011;7466;53.574;9.976;2022-08-19T11:11:40;29.10;;;21.20;;
14748;SDS011;7466;53.574;9.976;2022-08-19T11:14:08;26.60;;;22.63;;
14748;SDS011;7466;53.574;9.976;2022-08-19T11:16:35;27.80;;;21.20;;
14748;SDS011;7466;53.574;9.976;2022-08-19T11:19:03;26.20;;;21.83;;
14748;SDS011;7466;53.574;9.976;2022-08-19T11:21:33;30.27;;;20.73;;
14748;SDS011;7466;53.574;9.976;2022-08-19T11:24:03;24.90;;;18.83;;
14748;SDS011;7466;53.574;9.976;2022-08-19T11:26:32;28.33;;;20.90;;
14748;SDS011;7466;53.574;9.976;2022-08-19T11:29:00;22.17;;;18.60;;
14748;SDS011;7466;53.574;9.976;2022-08-19T11:31:28;24.73;;;19.23;;
14748;SDS011;7466;53.574;9.976;2022-08-19T11:33:57;26.27;;;19.43;;
14748;SDS011;7466;53.574;9.976;2022-08-19T11:36:26;21.77;;;16.58;;
14748;SDS011;7466;53.574;9.976;2022-08-19T11:38:55;19.88;;;17.48;;
14748;SDS011;7466;53.574;9.976;2022-08-19T11:41:23;21.47;;;17.63;;
14748;SDS011;7466;53.574;9.976;2022-08-19T11:43:50;22.50;;;16.83;;
14748;SDS011;7466;53.574;9.976;2022-08-19T11:46:20;19.45;;;17.45;;
14748;SDS011;7466;53.574;9.976;2022-08-19T11:48:48;22.73;;;18.15;;
14748;SDS011;7466;53.574;9.976;2022-08-19T11:51:16;19.65;;;16.35;;
14748;SDS011;7466;53.574;9.976;2022-08-19T11:53:44;18.48;;;16.58;;
14748;SDS011;7466;53.574;9.976;2022-08-19T11:56:11;17.43;;;15.27;;
14748;SDS011;7466;53.574;9.976;2022-08-19T11:58:40;17.03;;;15.20;;
14748;SDS011;7466;53.574;9.976;2022-08-19T12:01:09;20.97;;;15.87;;
14748;SDS011;7466;53.574;9.976;2022-08-19T12:03:37;17.53;;;15.53;;
14748;SDS011;7466;53.574;9.976;2022-08-19T12:06:05;17.17;;;15.47;;
14748;SDS011;7466;53.574;9.976;2022-08-19T12:08:33;17.07;;;15.53;;
14748;SDS011;7466;53.574;9.976;2022-08-19T12:11:00;17.00;;;14.98;;
14748;SDS011;7466;53.574;9.976;2022-08-19T12:13:27;18.05;;;15.95;;
14748;SDS011;7466;53.574;9.976;2022-08-19T12:15:56;17.63;;;15.73;;
14748;SDS011;7466;53.574;9.976;2022-08-19T12:18:24;17.30;;;14.73;;
14748;SDS011;7466;53.574;9.976;2022-08-19T12:20:51;16.80;;;15.03;;
14748;SDS011;7466;53.574;9.976;2022-08-19T12:23:21;16.42;;;14.77;;
14748;SDS011;7466;53.574;9.976;2022-08-19T12:25:48;17.67;;;14.88;;
14748;SDS011;7466;53.574;9.976;2022-08-19T12:28:17;14.70;;;13.50;;
14748;SDS011;7466;53.574;9.976;2022-08-19T12:30:45;14.45;;;13.25;;
14748;SDS011;7466;53.574;9.976;2022-08-19T12:33:13;14.90;;;13.40;;
14748;SDS011;7466;53.574;9.976;2022-08-19T12:35:40;13.18;;;11.30;;
14748;SDS011;7466;53.574;9.976;2022-08-19T12:38:09;11.88;;;10.70;;
14748;SDS011;7466;53.574;9.976;2022-08-19T12:40:36;13.45;;;11.52;;
14748;SDS011;7466;53.574;9.976;2022-08-19T12:43:04;12.02;;;11.07;;
14748;SDS011;7466;53.574;9.976;2022-08-19T12:45:30;12.40;;;11.40;;
14748;SDS011;7466;53.574;9.976;2022-08-19T12:47:57;12.88;;;11.88;;
14748;SDS011;7466;53.574;9.976;2022-08-19T12:50:25;11.45;;;10.50;;
14748;SDS011;7466;53.574;9.976;2022-08-19T12:52:53;11.32;;;10.63;;
14748;SDS011;7466;53.574;9.976;2022-08-19T12:55:20;11.18;;;10.20;;
14748;SDS011;7466;53.574;9.976;2022-08-19T12:57:46;12.73;;;11.30;;
14748;SDS011;7466;53.574;9.976;2022-08-19T13:00:15;14.00;;;12.70;;
14748;SDS011;7466;53.574;9.976;2022-08-19T13:02:46;13.25;;;12.10;;
14748;SDS011;7466;53.574;9.976;2022-08-19T13:05:15;12.27;;;11.30;;
14748;SDS011;7466;53.574;9.976;2022-08-19T13:07:46;12.98;;;12.00;;
14748;SDS011;7466;53.574;9.976;2022-08-19T13:10:13;13.65;;;12.38;;
14748;SDS011;7466;53.574;9.976;2022-08-19T13:12:42;13.10;;;12.00;;
14748;SDS011;7466;53.574;9.976;2022-08-19T13:15:10;12.95;;;11.85;;
14748;SDS011;7466;53.574;9.976;2022-08-19T13:17:38;13.55;;;12.45;;
14748;SDS011;7466;53.574;9.976;2022-08-19T13:20:06;13.27;;;12.27;;
14748;SDS011;7466;53.574;9.976;2022-08-19T13:22:35;12.95;;;11.65;;
14748;SDS011;7466;53.574;9.976;2022-08-19T13:25:04;14.88;;;13.57;;
14748;SDS011;7466;53.574;9.976;2022-08-19T13:27:32;12.65;;;11.40;;
14748;SDS011;7466;53.574;9.976;2022-08-19T13:29:59;14.05;;;11.20;;
14748;SDS011;7466;53.574;9.976;2022-08-19T13:32:44;12.93;;;11.88;;
14748;SDS011;7466;53.574;9.976;2022-08-19T13:35:28;35.17;;;13.30;;
14748;SDS011;7466;53.574;9.976;2022-08-19T13:37:55;20.35;;;11.35;;
14748;SDS011;7466;53.574;9.976;2022-08-19T13:40:24;12.30;;;11.10;;
14748;SDS011;7466;53.574;9.976;2022-08-19T13:42:52;16.55;;;12.15;;
14748;SDS011;7466;53.574;9.976;2022-08-19T13:45:21;14.32;;;12.45;;
14748;SDS011;7466;53.574;9.976;2022-08-19T13:47:50;13.93;;;12.73;;
14748;SDS011;7466;53.574;9.976;2022-08-19T13:50:19;12.82;;;11.60;;
14748;SDS011;7466;53.574;9.976;2022-08-19T13:52:49;13.93;;;12.73;;
14748;SDS011;7466;53.574;9.976;2022-08-19T13:55:17;13.60;;;12.38;;
14748;SDS011;7466;53.574;9.976;2022-08-19T13:57:45;14.07;;;12.98;;
14748;SDS011;7466;53.574;9.976;2022-08-19T14:00:13;13.77;;;12.43;;
14748;SDS011;7466;53.574;9.976;2022-08-19T14:02:43;14.32;;;12.95;;
14748;SDS011;7466;53.574;9.976;2022-08-19T14:05:10;15.07;;;13.70;;
14748;SDS011;7466;53.574;9.976;2022-08-19T14:07:39;15.60;;;14.10;;
14748;SDS011;7466;53.574;9.976;2022-08-19T14:10:07;15.02;;;13.35;;
14748;SDS011;7466;53.574;9.976;2022-08-19T14:12:36;14.25;;;12.93;;
14748;SDS011;7466;53.574;9.976;2022-08-19T14:15:05;15.02;;;13.82;;
14748;SDS011;7466;53.574;9.976;2022-08-19T14:17:34;13.70;;;12.68;;
14748;SDS011;7466;53.574;9.976;2022-08-19T14:20:04;14.52;;;13.32;;
14748;SDS011;7466;53.574;9.976;2022-08-19T14:22:32;14.52;;;13.10;;
14748;SDS011;7466;53.574;9.976;2022-08-19T14:24:59;15.18;;;13.77;;
14748;SDS011;7466;53.574;9.976;2022-08-19T14:27:26;13.38;;;12.30;;
14748;SDS011;7466;53.574;9.976;2022-08-19T14:29:52;12.85;;;11.85;;
14748;SDS011;7466;53.574;9.976;2022-08-19T14:32:21;13.90;;;12.73;;
14748;SDS011;7466;53.574;9.976;2022-08-19T14:34:51;15.80;;;14.40;;
14748;SDS011;7466;53.574;9.976;2022-08-19T14:37:19;15.38;;;14.07;;
14748;SDS011;7466;53.574;9.976;2022-08-19T14:39:46;14.88;;;13.65;;
14748;SDS011;7466;53.574;9.976;2022-08-19T14:42:13;15.27;;;14.07;;